Cedar Valley, Iowa
Current Conditions -  °F | °C
As of 9:52 PM on Saturday 24 Jan 2015 (Local Time) from KIOW Reporting Station
Clear Clear  
Wind Chill: 33°   Ceiling: Unl
Heat Index: 33°   Visibility: 10mi
Dew Point: 30°   Wind: 0mph
Humidity: 89%   Direction: NA
Pressure: 29.61"   Gusts: NA
Location:  41.6714°N, 91.2723°W
Report Text: KIOW 250352Z AUTO 00000KT 10SM CLR 01/M01 A2961 RMK AO2 SLP031 T00061011
Loading
Personal Weather Stations






























Interactive Weather Map New forecast layout! Learn more

10-Day Weather Forecast

Advertisements
Track Severe Weather on mobile